sensor_id;sensor_type;location;lat;lon;timestamp;P1;durP1;ratioP1;P2;durP2;ratioP2
57249;SDS011;43102;52.014;-0.680;2023-03-05T00:00:00;10.30;;;7.80;;
57249;SDS011;43102;52.014;-0.680;2023-03-05T00:01:09;10.30;;;7.80;;
57249;SDS011;43102;52.014;-0.680;2023-03-05T00:02:00;10.30;;;7.80;;
57249;SDS011;43102;52.014;-0.680;2023-03-05T00:03:00;10.30;;;7.80;;
57249;SDS011;43102;52.014;-0.680;2023-03-05T00:04:02;10.30;;;7.80;;
57249;SDS011;43102;52.014;-0.680;2023-03-05T00:05:00;10.30;;;7.80;;
57249;SDS011;43102;52.014;-0.680;2023-03-05T00:06:00;10.30;;;7.80;;
57249;SDS011;43102;52.014;-0.680;2023-03-05T00:07:00;10.30;;;7.80;;
57249;SDS011;43102;52.014;-0.680;2023-03-05T00:08:00;10.30;;;7.80;;
57249;SDS011;43102;52.014;-0.680;2023-03-05T00:09:01;10.30;;;7.80;;
57249;SDS011;43102;52.014;-0.680;2023-03-05T00:10:01;10.30;;;7.80;;
57249;SDS011;43102;52.014;-0.680;2023-03-05T00:11:03;10.30;;;7.80;;
57249;SDS011;43102;52.014;-0.680;2023-03-05T00:12:00;10.30;;;7.80;;
57249;SDS011;43102;52.014;-0.680;2023-03-05T00:13:00;10.30;;;7.80;;
57249;SDS011;43102;52.014;-0.680;2023-03-05T00:14:02;10.30;;;7.80;;
57249;SDS011;43102;52.014;-0.680;2023-03-05T00:15:00;12.40;;;8.40;;
57249;SDS011;43102;52.014;-0.680;2023-03-05T00:16:03;12.40;;;8.40;;
57249;SDS011;43102;52.014;-0.680;2023-03-05T00:17:00;12.40;;;8.40;;
57249;SDS011;43102;52.014;-0.680;2023-03-05T00:18:00;12.40;;;8.40;;
57249;SDS011;43102;52.014;-0.680;2023-03-05T00:19:00;12.40;;;8.40;;
57249;SDS011;43102;52.014;-0.680;2023-03-05T00:20:02;12.40;;;8.40;;
57249;SDS011;43102;52.014;-0.680;2023-03-05T00:21:00;12.40;;;8.40;;
57249;SDS011;43102;52.014;-0.680;2023-03-05T00:22:00;12.40;;;8.40;;
57249;SDS011;43102;52.014;-0.680;2023-03-05T00:23:00;12.40;;;8.40;;
57249;SDS011;43102;52.014;-0.680;2023-03-05T00:24:04;12.40;;;8.40;;
57249;SDS011;43102;52.014;-0.680;2023-03-05T00:25:01;12.40;;;8.40;;
57249;SDS011;43102;52.014;-0.680;2023-03-05T00:26:01;12.40;;;8.40;;
57249;SDS011;43102;52.014;-0.680;2023-03-05T00:27:00;12.40;;;8.40;;
57249;SDS011;43102;52.014;-0.680;2023-03-05T00:28:00;12.40;;;8.40;;
57249;SDS011;43102;52.014;-0.680;2023-03-05T00:29:00;12.40;;;8.40;;
57249;SDS011;43102;52.014;-0.680;2023-03-05T00:30:00;12.40;;;8.40;;
57249;SDS011;43102;52.014;-0.680;2023-03-05T00:31:01;12.40;;;8.40;;
57249;SDS011;43102;52.014;-0.680;2023-03-05T00:32:00;12.40;;;8.40;;
57249;SDS011;43102;52.014;-0.680;2023-03-05T00:33:01;12.40;;;8.40;;
57249;SDS011;43102;52.014;-0.680;2023-03-05T00:34:03;12.40;;;8.40;;
57249;SDS011;43102;52.014;-0.680;2023-03-05T00:35:00;12.40;;;8.40;;
57249;SDS011;43102;52.014;-0.680;2023-03-05T00:36:04;12.40;;;8.40;;
57249;SDS011;43102;52.014;-0.680;2023-03-05T00:37:00;12.40;;;8.40;;
57249;SDS011;43102;52.014;-0.680;2023-03-05T00:38:00;12.40;;;8.40;;
57249;SDS011;43102;52.014;-0.680;2023-03-05T00:39:00;12.40;;;8.40;;
57249;SDS011;43102;52.014;-0.680;2023-03-05T00:40:01;12.40;;;8.40;;
57249;SDS011;43102;52.014;-0.680;2023-03-05T00:41:01;12.40;;;8.40;;
57249;SDS011;43102;52.014;-0.680;2023-03-05T00:42:01;12.40;;;8.40;;
57249;SDS011;43102;52.014;-0.680;2023-03-05T00:43:00;12.40;;;8.40;;
57249;SDS011;43102;52.014;-0.680;2023-03-05T00:44:00;12.40;;;8.40;;
57249;SDS011;43102;52.014;-0.680;2023-03-05T00:45:00;11.60;;;8.90;;
57249;SDS011;43102;52.014;-0.680;2023-03-05T00:46:00;11.60;;;8.90;;
57249;SDS011;43102;52.014;-0.680;2023-03-05T00:47:00;11.60;;;8.90;;
57249;SDS011;43102;52.014;-0.680;2023-03-05T00:48:02;11.60;;;8.90;;
57249;SDS011;43102;52.014;-0.680;2023-03-05T00:49:00;11.60;;;8.90;;
57249;SDS011;43102;52.014;-0.680;2023-03-05T00:50:01;11.60;;;8.90;;
57249;SDS011;43102;52.014;-0.680;2023-03-05T00:51:00;11.60;;;8.90;;
57249;SDS011;43102;52.014;-0.680;2023-03-05T00:52:00;11.60;;;8.90;;
57249;SDS011;43102;52.014;-0.680;2023-03-05T00:53:00;11.60;;;8.90;;
57249;SDS011;43102;52.014;-0.680;2023-03-05T00:54:00;11.60;;;8.90;;
57249;SDS011;43102;52.014;-0.680;2023-03-05T00:55:00;11.60;;;8.90;;
57249;SDS011;43102;52.014;-0.680;2023-03-05T00:56:00;11.60;;;8.90;;
57249;SDS011;43102;52.014;-0.680;2023-03-05T00:57:00;11.60;;;8.90;;
57249;SDS011;43102;52.014;-0.680;2023-03-05T00:58:00;11.60;;;8.90;;
57249;SDS011;43102;52.014;-0.680;2023-03-05T00:59:00;11.60;;;8.90;;
57249;SDS011;43102;52.014;-0.680;2023-03-05T01:00:00;11.60;;;8.90;;
57249;SDS011;43102;52.014;-0.680;2023-03-05T01:01:01;11.60;;;8.90;;
57249;SDS011;43102;52.014;-0.680;2023-03-05T01:02:00;11.60;;;8.90;;
57249;SDS011;43102;52.014;-0.680;2023-03-05T01:03:00;11.60;;;8.90;;
57249;SDS011;43102;52.014;-0.680;2023-03-05T01:04:00;11.60;;;8.90;;
57249;SDS011;43102;52.014;-0.680;2023-03-05T01:05:00;11.60;;;8.90;;
57249;SDS011;43102;52.014;-0.680;2023-03-05T01:06:04;11.60;;;8.90;;
57249;SDS011;43102;52.014;-0.680;2023-03-05T01:07:00;11.60;;;8.90;;
57249;SDS011;43102;52.014;-0.680;2023-03-05T01:08:00;11.60;;;8.90;;
57249;SDS011;43102;52.014;-0.680;2023-03-05T01:09:00;11.60;;;8.90;;
57249;SDS011;43102;52.014;-0.680;2023-03-05T01:10:00;11.60;;;8.90;;
57249;SDS011;43102;52.014;-0.680;2023-03-05T01:11:01;11.60;;;8.90;;
57249;SDS011;43102;52.014;-0.680;2023-03-05T01:12:00;11.60;;;8.90;;
57249;SDS011;43102;52.014;-0.680;2023-03-05T01:13:00;11.60;;;8.90;;
57249;SDS011;43102;52.014;-0.680;2023-03-05T01:14:00;11.60;;;8.90;;
57249;SDS011;43102;52.014;-0.680;2023-03-05T01:15:01;10.40;;;7.70;;
57249;SDS011;43102;52.014;-0.680;2023-03-05T01:16:00;10.40;;;7.70;;
57249;SDS011;43102;52.014;-0.680;2023-03-05T01:17:01;10.40;;;7.70;;
57249;SDS011;43102;52.014;-0.680;2023-03-05T01:18:00;10.40;;;7.70;;
57249;SDS011;43102;52.014;-0.680;2023-03-05T01:19:00;10.40;;;7.70;;
57249;SDS011;43102;52.014;-0.680;2023-03-05T01:20:00;10.40;;;7.70;;
57249;SDS011;43102;52.014;-0.680;2023-03-05T01:21:00;10.40;;;7.70;;
57249;SDS011;43102;52.014;-0.680;2023-03-05T01:22:00;10.40;;;7.70;;
57249;SDS011;43102;52.014;-0.680;2023-03-05T01:23:00;10.40;;;7.70;;
57249;SDS011;43102;52.014;-0.680;2023-03-05T01:24:00;10.40;;;7.70;;
57249;SDS011;43102;52.014;-0.680;2023-03-05T01:25:00;10.40;;;7.70;;
57249;SDS011;43102;52.014;-0.680;2023-03-05T01:26:00;10.40;;;7.70;;
57249;SDS011;43102;52.014;-0.680;2023-03-05T01:27:00;10.40;;;7.70;;
57249;SDS011;43102;52.014;-0.680;2023-03-05T01:28:00;10.40;;;7.70;;
57249;SDS011;43102;52.014;-0.680;2023-03-05T01:29:01;10.40;;;7.70;;
57249;SDS011;43102;52.014;-0.680;2023-03-05T01:30:00;10.40;;;7.70;;
57249;SDS011;43102;52.014;-0.680;2023-03-05T01:31:00;10.40;;;7.70;;
57249;SDS011;43102;52.014;-0.680;2023-03-05T01:32:01;10.40;;;7.70;;
57249;SDS011;43102;52.014;-0.680;2023-03-05T01:33:01;10.40;;;7.70;;
57249;SDS011;43102;52.014;-0.680;2023-03-05T01:34:00;10.40;;;7.70;;
57249;SDS011;43102;52.014;-0.680;2023-03-05T01:35:01;10.40;;;7.70;;
57249;SDS011;43102;52.014;-0.680;2023-03-05T01:36:00;10.40;;;7.70;;
57249;SDS011;43102;52.014;-0.680;2023-03-05T01:37:00;10.40;;;7.70;;
57249;SDS011;43102;52.014;-0.680;2023-03-05T01:38:00;10.40;;;7.70;;
57249;SDS011;43102;52.014;-0.680;2023-03-05T01:39:01;10.40;;;7.70;;
57249;SDS011;43102;52.014;-0.680;2023-03-05T01:40:00;10.40;;;7.70;;
57249;SDS011;43102;52.014;-0.680;2023-03-05T01:41:00;10.40;;;7.70;;
57249;SDS011;43102;52.014;-0.680;2023-03-05T01:42:01;10.40;;;7.70;;
57249;SDS011;43102;52.014;-0.680;2023-03-05T01:44:00;10.40;;;7.70;;
57249;SDS011;43102;52.014;-0.680;2023-03-05T01:45:10;11.50;;;8.20;;
57249;SDS011;43102;52.014;-0.680;2023-03-05T01:47:00;11.50;;;8.20;;
57249;SDS011;43102;52.014;-0.680;2023-03-05T01:48:00;11.50;;;8.20;;
57249;SDS011;43102;52.014;-0.680;2023-03-05T01:49:11;11.50;;;8.20;;
57249;SDS011;43102;52.014;-0.680;2023-03-05T01:50:01;11.50;;;8.20;;
57249;SDS011;43102;52.014;-0.680;2023-03-05T01:51:00;11.50;;;8.20;;
57249;SDS011;43102;52.014;-0.680;2023-03-05T01:53:03;11.50;;;8.20;;
57249;SDS011;43102;52.014;-0.680;2023-03-05T01:54:01;11.50;;;8.20;;
57249;SDS011;43102;52.014;-0.680;2023-03-05T01:55:03;11.50;;;8.20;;
57249;SDS011;43102;52.014;-0.680;2023-03-05T01:56:00;11.50;;;8.20;;
57249;SDS011;43102;52.014;-0.680;2023-03-05T01:57:06;11.50;;;8.20;;
57249;SDS011;43102;52.014;-0.680;2023-03-05T01:58:04;11.50;;;8.20;;
57249;SDS011;43102;52.014;-0.680;2023-03-05T01:59:04;11.50;;;8.20;;
57249;SDS011;43102;52.014;-0.680;2023-03-05T02:00:07;11.50;;;8.20;;
57249;SDS011;43102;52.014;-0.680;2023-03-05T02:01:01;11.50;;;8.20;;
57249;SDS011;43102;52.014;-0.680;2023-03-05T02:02:01;11.50;;;8.20;;
57249;SDS011;43102;52.014;-0.680;2023-03-05T02:03:04;11.50;;;8.20;;
57249;SDS011;43102;52.014;-0.680;2023-03-05T02:04:01;11.50;;;8.20;;
57249;SDS011;43102;52.014;-0.680;2023-03-05T02:05:04;11.50;;;8.20;;
57249;SDS011;43102;52.014;-0.680;2023-03-05T02:06:00;11.50;;;8.20;;
57249;SDS011;43102;52.014;-0.680;2023-03-05T02:07:01;11.50;;;8.20;;
57249;SDS011;43102;52.014;-0.680;2023-03-05T02:08:04;11.50;;;8.20;;
57249;SDS011;43102;52.014;-0.680;2023-03-05T02:09:00;11.50;;;8.20;;
57249;SDS011;43102;52.014;-0.680;2023-03-05T02:10:00;11.50;;;8.20;;
57249;SDS011;43102;52.014;-0.680;2023-03-05T02:11:01;11.50;;;8.20;;
57249;SDS011;43102;52.014;-0.680;2023-03-05T02:12:00;11.50;;;8.20;;
57249;SDS011;43102;52.014;-0.680;2023-03-05T02:13:03;11.50;;;8.20;;
57249;SDS011;43102;52.014;-0.680;2023-03-05T02:14:02;11.50;;;8.20;;
57249;SDS011;43102;52.014;-0.680;2023-03-05T02:15:00;9.70;;;7.90;;
57249;SDS011;43102;52.014;-0.680;2023-03-05T02:16:01;9.70;;;7.90;;
57249;SDS011;43102;52.014;-0.680;2023-03-05T02:17:00;9.70;;;7.90;;
57249;SDS011;43102;52.014;-0.680;2023-03-05T02:18:00;9.70;;;7.90;;
57249;SDS011;43102;52.014;-0.680;2023-03-05T02:19:03;9.70;;;7.90;;
57249;SDS011;43102;52.014;-0.680;2023-03-05T02:20:06;9.70;;;7.90;;
57249;SDS011;43102;52.014;-0.680;2023-03-05T02:21:03;9.70;;;7.90;;
57249;SDS011;43102;52.014;-0.680;2023-03-05T02:22:00;9.70;;;7.90;;
57249;SDS011;43102;52.014;-0.680;2023-03-05T02:23:00;9.70;;;7.90;;
57249;SDS011;43102;52.014;-0.680;2023-03-05T02:24:00;9.70;;;7.90;;
57249;SDS011;43102;52.014;-0.680;2023-03-05T02:25:00;9.70;;;7.90;;
57249;SDS011;43102;52.014;-0.680;2023-03-05T02:26:01;9.70;;;7.90;;
57249;SDS011;43102;52.014;-0.680;2023-03-05T02:27:02;9.70;;;7.90;;
57249;SDS011;43102;52.014;-0.680;2023-03-05T02:28:11;9.70;;;7.90;;
57249;SDS011;43102;52.014;-0.680;2023-03-05T02:29:02;9.70;;;7.90;;
57249;SDS011;43102;52.014;-0.680;2023-03-05T02:30:01;9.70;;;7.90;;
57249;SDS011;43102;52.014;-0.680;2023-03-05T02:31:00;9.70;;;7.90;;
57249;SDS011;43102;52.014;-0.680;2023-03-05T02:32:02;9.70;;;7.90;;
57249;SDS011;43102;52.014;-0.680;2023-03-05T02:33:00;9.70;;;7.90;;
57249;SDS011;43102;52.014;-0.680;2023-03-05T02:34:00;9.70;;;7.90;;
57249;SDS011;43102;52.014;-0.680;2023-03-05T02:35:00;9.70;;;7.90;;
57249;SDS011;43102;52.014;-0.680;2023-03-05T02:36:00;9.70;;;7.90;;
57249;SDS011;43102;52.014;-0.680;2023-03-05T02:37:03;9.70;;;7.90;;
57249;SDS011;43102;52.014;-0.680;2023-03-05T02:38:00;9.70;;;7.90;;
57249;SDS011;43102;52.014;-0.680;2023-03-05T02:39:00;9.70;;;7.90;;
57249;SDS011;43102;52.014;-0.680;2023-03-05T02:40:00;9.70;;;7.90;;
57249;SDS011;43102;52.014;-0.680;2023-03-05T02:41:00;9.70;;;7.90;;
57249;SDS011;43102;52.014;-0.680;2023-03-05T02:42:00;9.70;;;7.90;;
57249;SDS011;43102;52.014;-0.680;2023-03-05T02:43:00;9.70;;;7.90;;
57249;SDS011;43102;52.014;-0.680;2023-03-05T02:44:00;9.70;;;7.90;;
57249;SDS011;43102;52.014;-0.680;2023-03-05T02:45:01;11.40;;;8.30;;
57249;SDS011;43102;52.014;-0.680;2023-03-05T02:46:00;11.40;;;8.30;;
57249;SDS011;43102;52.014;-0.680;2023-03-05T02:47:00;11.40;;;8.30;;
57249;SDS011;43102;52.014;-0.680;2023-03-05T02:48:00;11.40;;;8.30;;
57249;SDS011;43102;52.014;-0.680;2023-03-05T02:49:00;11.40;;;8.30;;
57249;SDS011;43102;52.014;-0.680;2023-03-05T02:50:00;11.40;;;8.30;;
57249;SDS011;43102;52.014;-0.680;2023-03-05T02:51:02;11.40;;;8.30;;
57249;SDS011;43102;52.014;-0.680;2023-03-05T02:52:00;11.40;;;8.30;;
57249;SDS011;43102;52.014;-0.680;2023-03-05T02:53:00;11.40;;;8.30;;
57249;SDS011;43102;52.014;-0.680;2023-03-05T02:54:00;11.40;;;8.30;;
57249;SDS011;43102;52.014;-0.680;2023-03-05T02:55:00;11.40;;;8.30;;
57249;SDS011;43102;52.014;-0.680;2023-03-05T02:56:00;11.40;;;8.30;;
57249;SDS011;43102;52.014;-0.680;2023-03-05T02:57:00;11.40;;;8.30;;
57249;SDS011;43102;52.014;-0.680;2023-03-05T02:58:00;11.40;;;8.30;;
57249;SDS011;43102;52.014;-0.680;2023-03-05T02:59:00;11.40;;;8.30;;
57249;SDS011;43102;52.014;-0.680;2023-03-05T03:00:00;11.40;;;8.30;;
57249;SDS011;43102;52.014;-0.680;2023-03-05T03:01:00;11.40;;;8.30;;
57249;SDS011;43102;52.014;-0.680;2023-03-05T03:02:00;11.40;;;8.30;;
57249;SDS011;43102;52.014;-0.680;2023-03-05T03:03:00;11.40;;;8.30;;
57249;SDS011;43102;52.014;-0.680;2023-03-05T03:04:00;11.40;;;8.30;;
57249;SDS011;43102;52.014;-0.680;2023-03-05T03:05:00;11.40;;;8.30;;
57249;SDS011;43102;52.014;-0.680;2023-03-05T03:06:00;11.40;;;8.30;;
57249;SDS011;43102;52.014;-0.680;2023-03-05T03:07:00;11.40;;;8.30;;
57249;SDS011;43102;52.014;-0.680;2023-03-05T03:08:00;11.40;;;8.30;;
57249;SDS011;43102;52.014;-0.680;2023-03-05T03:09:00;11.40;;;8.30;;
57249;SDS011;43102;52.014;-0.680;2023-03-05T03:10:00;11.40;;;8.30;;
57249;SDS011;43102;52.014;-0.680;2023-03-05T03:11:10;11.40;;;8.30;;
57249;SDS011;43102;52.014;-0.680;2023-03-05T03:12:01;11.40;;;8.30;;
57249;SDS011;43102;52.014;-0.680;2023-03-05T03:13:01;11.40;;;8.30;;
57249;SDS011;43102;52.014;-0.680;2023-03-05T03:14:00;11.40;;;8.30;;
57249;SDS011;43102;52.014;-0.680;2023-03-05T03:15:00;12.10;;;8.40;;
57249;SDS011;43102;52.014;-0.680;2023-03-05T03:16:01;12.10;;;8.40;;
57249;SDS011;43102;52.014;-0.680;2023-03-05T03:17:00;12.10;;;8.40;;
57249;SDS011;43102;52.014;-0.680;2023-03-05T03:18:00;12.10;;;8.40;;
57249;SDS011;43102;52.014;-0.680;2023-03-05T03:19:00;12.10;;;8.40;;
57249;SDS011;43102;52.014;-0.680;2023-03-05T03:20:02;12.10;;;8.40;;
57249;SDS011;43102;52.014;-0.680;2023-03-05T03:21:01;12.10;;;8.40;;
57249;SDS011;43102;52.014;-0.680;2023-03-05T03:22:00;12.10;;;8.40;;
57249;SDS011;43102;52.014;-0.680;2023-03-05T03:23:00;12.10;;;8.40;;
57249;SDS011;43102;52.014;-0.680;2023-03-05T03:24:00;12.10;;;8.40;;
57249;SDS011;43102;52.014;-0.680;2023-03-05T03:25:01;12.10;;;8.40;;
57249;SDS011;43102;52.014;-0.680;2023-03-05T03:26:00;12.10;;;8.40;;
57249;SDS011;43102;52.014;-0.680;2023-03-05T03:27:01;12.10;;;8.40;;
57249;SDS011;43102;52.014;-0.680;2023-03-05T03:28:00;12.10;;;8.40;;
57249;SDS011;43102;52.014;-0.680;2023-03-05T03:29:00;12.10;;;8.40;;
57249;SDS011;43102;52.014;-0.680;2023-03-05T03:30:03;12.10;;;8.40;;
57249;SDS011;43102;52.014;-0.680;2023-03-05T03:31:00;12.10;;;8.40;;
57249;SDS011;43102;52.014;-0.680;2023-03-05T03:32:01;12.10;;;8.40;;
57249;SDS011;43102;52.014;-0.680;2023-03-05T03:33:00;12.10;;;8.40;;
57249;SDS011;43102;52.014;-0.680;2023-03-05T03:34:00;12.10;;;8.40;;
57249;SDS011;43102;52.014;-0.680;2023-03-05T03:35:00;12.10;;;8.40;;
57249;SDS011;43102;52.014;-0.680;2023-03-05T03:36:00;12.10;;;8.40;;
57249;SDS011;43102;52.014;-0.680;2023-03-05T03:37:00;12.10;;;8.40;;
57249;SDS011;43102;52.014;-0.680;2023-03-05T03:38:00;12.10;;;8.40;;
57249;SDS011;43102;52.014;-0.680;2023-03-05T03:39:00;12.10;;;8.40;;
57249;SDS011;43102;52.014;-0.680;2023-03-05T03:40:00;12.10;;;8.40;;
57249;SDS011;43102;52.014;-0.680;2023-03-05T03:41:00;12.10;;;8.40;;
57249;SDS011;43102;52.014;-0.680;2023-03-05T03:42:00;12.10;;;8.40;;
57249;SDS011;43102;52.014;-0.680;2023-03-05T03:43:00;12.10;;;8.40;;
57249;SDS011;43102;52.014;-0.680;2023-03-05T03:44:02;12.10;;;8.40;;
57249;SDS011;43102;52.014;-0.680;2023-03-05T03:45:01;10.40;;;7.90;;
57249;SDS011;43102;52.014;-0.680;2023-03-05T03:46:04;10.40;;;7.90;;
57249;SDS011;43102;52.014;-0.680;2023-03-05T03:47:00;10.40;;;7.90;;
57249;SDS011;43102;52.014;-0.680;2023-03-05T03:48:00;10.40;;;7.90;;
57249;SDS011;43102;52.014;-0.680;2023-03-05T03:49:00;10.40;;;7.90;;
57249;SDS011;43102;52.014;-0.680;2023-03-05T03:50:00;10.40;;;7.90;;
57249;SDS011;43102;52.014;-0.680;2023-03-05T03:51:03;10.40;;;7.90;;
57249;SDS011;43102;52.014;-0.680;2023-03-05T03:52:02;10.40;;;7.90;;
57249;SDS011;43102;52.014;-0.680;2023-03-05T03:53:00;10.40;;;7.90;;
57249;SDS011;43102;52.014;-0.680;2023-03-05T03:54:00;10.40;;;7.90;;
57249;SDS011;43102;52.014;-0.680;2023-03-05T03:55:01;10.40;;;7.90;;
57249;SDS011;43102;52.014;-0.680;2023-03-05T03:56:00;10.40;;;7.90;;
57249;SDS011;43102;52.014;-0.680;2023-03-05T03:57:00;10.40;;;7.90;;
57249;SDS011;43102;52.014;-0.680;2023-03-05T03:58:00;10.40;;;7.90;;
57249;SDS011;43102;52.014;-0.680;2023-03-05T03:59:00;10.40;;;7.90;;
57249;SDS011;43102;52.014;-0.680;2023-03-05T04:00:00;10.40;;;7.90;;
57249;SDS011;43102;52.014;-0.680;2023-03-05T04:01:00;10.40;;;7.90;;
57249;SDS011;43102;52.014;-0.680;2023-03-05T04:02:00;10.40;;;7.90;;
57249;SDS011;43102;52.014;-0.680;2023-03-05T04:03:00;10.40;;;7.90;;
57249;SDS011;43102;52.014;-0.680;2023-03-05T04:04:00;10.40;;;7.90;;
57249;SDS011;43102;52.014;-0.680;2023-03-05T04:05:00;10.40;;;7.90;;
57249;SDS011;43102;52.014;-0.680;2023-03-05T04:06:00;10.40;;;7.90;;
57249;SDS011;43102;52.014;-0.680;2023-03-05T04:07:00;10.40;;;7.90;;
57249;SDS011;43102;52.014;-0.680;2023-03-05T04:08:00;10.40;;;7.90;;
57249;SDS011;43102;52.014;-0.680;2023-03-05T04:09:00;10.40;;;7.90;;
57249;SDS011;43102;52.014;-0.680;2023-03-05T04:10:00;10.40;;;7.90;;
57249;SDS011;43102;52.014;-0.680;2023-03-05T04:11:01;10.40;;;7.90;;
57249;SDS011;43102;52.014;-0.680;2023-03-05T04:12:00;10.40;;;7.90;;
57249;SDS011;43102;52.014;-0.680;2023-03-05T04:13:00;10.40;;;7.90;;
57249;SDS011;43102;52.014;-0.680;2023-03-05T04:14:00;10.40;;;7.90;;
57249;SDS011;43102;52.014;-0.680;2023-03-05T04:15:00;11.20;;;7.90;;
57249;SDS011;43102;52.014;-0.680;2023-03-05T04:16:00;11.20;;;7.90;;
57249;SDS011;43102;52.014;-0.680;2023-03-05T04:17:00;11.20;;;7.90;;
57249;SDS011;43102;52.014;-0.680;2023-03-05T04:18:00;11.20;;;7.90;;
57249;SDS011;43102;52.014;-0.680;2023-03-05T04:19:00;11.20;;;7.90;;
57249;SDS011;43102;52.014;-0.680;2023-03-05T04:20:00;11.20;;;7.90;;
57249;SDS011;43102;52.014;-0.680;2023-03-05T04:21:00;11.20;;;7.90;;
57249;SDS011;43102;52.014;-0.680;2023-03-05T04:22:00;11.20;;;7.90;;
57249;SDS011;43102;52.014;-0.680;2023-03-05T04:23:00;11.20;;;7.90;;
57249;SDS011;43102;52.014;-0.680;2023-03-05T04:24:00;11.20;;;7.90;;
57249;SDS011;43102;52.014;-0.680;2023-03-05T04:25:05;11.20;;;7.90;;
57249;SDS011;43102;52.014;-0.680;2023-03-05T04:26:00;11.20;;;7.90;;
57249;SDS011;43102;52.014;-0.680;2023-03-05T04:27:00;11.20;;;7.90;;
57249;SDS011;43102;52.014;-0.680;2023-03-05T04:28:00;11.20;;;7.90;;
57249;SDS011;43102;52.014;-0.680;2023-03-05T04:29:00;11.20;;;7.90;;
57249;SDS011;43102;52.014;-0.680;2023-03-05T04:30:00;11.20;;;7.90;;
57249;SDS011;43102;52.014;-0.680;2023-03-05T04:31:00;11.20;;;7.90;;
57249;SDS011;43102;52.014;-0.680;2023-03-05T04:32:00;11.20;;;7.90;;
57249;SDS011;43102;52.014;-0.680;2023-03-05T04:33:00;11.20;;;7.90;;
57249;SDS011;43102;52.014;-0.680;2023-03-05T04:34:00;11.20;;;7.90;;
57249;SDS011;43102;52.014;-0.680;2023-03-05T04:35:00;11.20;;;7.90;;
57249;SDS011;43102;52.014;-0.680;2023-03-05T04:36:00;11.20;;;7.90;;
57249;SDS011;43102;52.014;-0.680;2023-03-05T04:37:00;11.20;;;7.90;;
57249;SDS011;43102;52.014;-0.680;2023-03-05T04:38:00;11.20;;;7.90;;
57249;SDS011;43102;52.014;-0.680;2023-03-05T04:39:00;11.20;;;7.90;;
57249;SDS011;43102;52.014;-0.680;2023-03-05T04:40:00;11.20;;;7.90;;
57249;SDS011;43102;52.014;-0.680;2023-03-05T04:41:00;11.20;;;7.90;;
57249;SDS011;43102;52.014;-0.680;2023-03-05T04:42:00;11.20;;;7.90;;
57249;SDS011;43102;52.014;-0.680;2023-03-05T04:43:00;11.20;;;7.90;;
57249;SDS011;43102;52.014;-0.680;2023-03-05T04:44:00;11.20;;;7.90;;
57249;SDS011;43102;52.014;-0.680;2023-03-05T04:45:00;10.70;;;8.20;;
57249;SDS011;43102;52.014;-0.680;2023-03-05T04:46:00;10.70;;;8.20;;
57249;SDS011;43102;52.014;-0.680;2023-03-05T04:47:00;10.70;;;8.20;;
57249;SDS011;43102;52.014;-0.680;2023-03-05T04:48:00;10.70;;;8.20;;
57249;SDS011;43102;52.014;-0.680;2023-03-05T04:49:00;10.70;;;8.20;;
57249;SDS011;43102;52.014;-0.680;2023-03-05T04:50:00;10.70;;;8.20;;
57249;SDS011;43102;52.014;-0.680;2023-03-05T04:51:00;10.70;;;8.20;;
57249;SDS011;43102;52.014;-0.680;2023-03-05T04:52:00;10.70;;;8.20;;
57249;SDS011;43102;52.014;-0.680;2023-03-05T04:53:00;10.70;;;8.20;;
57249;SDS011;43102;52.014;-0.680;2023-03-05T04:54:00;10.70;;;8.20;;
57249;SDS011;43102;52.014;-0.680;2023-03-05T04:55:00;10.70;;;8.20;;
57249;SDS011;43102;52.014;-0.680;2023-03-05T04:56:00;10.70;;;8.20;;
57249;SDS011;43102;52.014;-0.680;2023-03-05T04:57:00;10.70;;;8.20;;
57249;SDS011;43102;52.014;-0.680;2023-03-05T04:58:00;10.70;;;8.20;;
57249;SDS011;43102;52.014;-0.680;2023-03-05T04:59:00;10.70;;;8.20;;
57249;SDS011;43102;52.014;-0.680;2023-03-05T05:00:00;10.70;;;8.20;;
57249;SDS011;43102;52.014;-0.680;2023-03-05T05:01:02;10.70;;;8.20;;
57249;SDS011;43102;52.014;-0.680;2023-03-05T05:02:00;10.70;;;8.20;;
57249;SDS011;43102;52.014;-0.680;2023-03-05T05:03:00;10.70;;;8.20;;
57249;SDS011;43102;52.014;-0.680;2023-03-05T05:04:01;10.70;;;8.20;;
57249;SDS011;43102;52.014;-0.680;2023-03-05T05:06:00;10.70;;;8.20;;
57249;SDS011;43102;52.014;-0.680;2023-03-05T05:07:01;10.70;;;8.20;;
57249;SDS011;43102;52.014;-0.680;2023-03-05T05:08:00;10.70;;;8.20;;
57249;SDS011;43102;52.014;-0.680;2023-03-05T05:09:00;10.70;;;8.20;;
57249;SDS011;43102;52.014;-0.680;2023-03-05T05:10:00;10.70;;;8.20;;
57249;SDS011;43102;52.014;-0.680;2023-03-05T05:11:03;10.70;;;8.20;;
57249;SDS011;43102;52.014;-0.680;2023-03-05T05:12:00;10.70;;;8.20;;
57249;SDS011;43102;52.014;-0.680;2023-03-05T05:13:00;10.70;;;8.20;;
57249;SDS011;43102;52.014;-0.680;2023-03-05T05:14:00;10.70;;;8.20;;
57249;SDS011;43102;52.014;-0.680;2023-03-05T05:15:00;13.70;;;7.90;;
57249;SDS011;43102;52.014;-0.680;2023-03-05T05:16:01;13.70;;;7.90;;
57249;SDS011;43102;52.014;-0.680;2023-03-05T05:17:04;13.70;;;7.90;;
57249;SDS011;43102;52.014;-0.680;2023-03-05T05:18:00;13.70;;;7.90;;
57249;SDS011;43102;52.014;-0.680;2023-03-05T05:19:00;13.70;;;7.90;;
57249;SDS011;43102;52.014;-0.680;2023-03-05T05:20:00;13.70;;;7.90;;
57249;SDS011;43102;52.014;-0.680;2023-03-05T05:21:00;13.70;;;7.90;;
57249;SDS011;43102;52.014;-0.680;2023-03-05T05:22:01;13.70;;;7.90;;
57249;SDS011;43102;52.014;-0.680;2023-03-05T05:23:00;13.70;;;7.90;;
57249;SDS011;43102;52.014;-0.680;2023-03-05T05:24:00;13.70;;;7.90;;
57249;SDS011;43102;52.014;-0.680;2023-03-05T05:25:00;13.70;;;7.90;;
57249;SDS011;43102;52.014;-0.680;2023-03-05T05:26:02;13.70;;;7.90;;
57249;SDS011;43102;52.014;-0.680;2023-03-05T05:27:00;13.70;;;7.90;;
57249;SDS011;43102;52.014;-0.680;2023-03-05T05:28:00;13.70;;;7.90;;
57249;SDS011;43102;52.014;-0.680;2023-03-05T05:29:00;13.70;;;7.90;;
57249;SDS011;43102;52.014;-0.680;2023-03-05T05:30:00;13.70;;;7.90;;
57249;SDS011;43102;52.014;-0.680;2023-03-05T05:31:06;13.70;;;7.90;;
57249;SDS011;43102;52.014;-0.680;2023-03-05T05:32:00;13.70;;;7.90;;
57249;SDS011;43102;52.014;-0.680;2023-03-05T05:33:00;13.70;;;7.90;;
57249;SDS011;43102;52.014;-0.680;2023-03-05T05:34:00;13.70;;;7.90;;
57249;SDS011;43102;52.014;-0.680;2023-03-05T05:35:00;13.70;;;7.90;;
57249;SDS011;43102;52.014;-0.680;2023-03-05T05:36:03;13.70;;;7.90;;
57249;SDS011;43102;52.014;-0.680;2023-03-05T05:37:00;13.70;;;7.90;;
57249;SDS011;43102;52.014;-0.680;2023-03-05T05:38:00;13.70;;;7.90;;
57249;SDS011;43102;52.014;-0.680;2023-03-05T05:39:00;13.70;;;7.90;;
57249;SDS011;43102;52.014;-0.680;2023-03-05T05:40:00;13.70;;;7.90;;
57249;SDS011;43102;52.014;-0.680;2023-03-05T05:41:01;13.70;;;7.90;;
57249;SDS011;43102;52.014;-0.680;2023-03-05T05:42:00;13.70;;;7.90;;
57249;SDS011;43102;52.014;-0.680;2023-03-05T05:43:00;13.70;;;7.90;;
57249;SDS011;43102;52.014;-0.680;2023-03-05T05:44:00;13.70;;;7.90;;
57249;SDS011;43102;52.014;-0.680;2023-03-05T05:45:02;13.80;;;8.80;;
57249;SDS011;43102;52.014;-0.680;2023-03-05T05:46:02;13.80;;;8.80;;
57249;SDS011;43102;52.014;-0.680;2023-03-05T05:47:00;13.80;;;8.80;;
57249;SDS011;43102;52.014;-0.680;2023-03-05T05:48:00;13.80;;;8.80;;
57249;SDS011;43102;52.014;-0.680;2023-03-05T05:49:00;13.80;;;8.80;;
57249;SDS011;43102;52.014;-0.680;2023-03-05T05:50:00;13.80;;;8.80;;
57249;SDS011;43102;52.014;-0.680;2023-03-05T05:51:09;13.80;;;8.80;;
57249;SDS011;43102;52.014;-0.680;2023-03-05T05:52:00;13.80;;;8.80;;
57249;SDS011;43102;52.014;-0.680;2023-03-05T05:53:00;13.80;;;8.80;;
57249;SDS011;43102;52.014;-0.680;2023-03-05T05:54:00;13.80;;;8.80;;
57249;SDS011;43102;52.014;-0.680;2023-03-05T05:55:00;13.80;;;8.80;;